sensor_id;sensor_type;location;lat;lon;timestamp;P1;durP1;ratioP1;P2;durP2;ratioP2
54271;SDS011;40184;53.362;5.216;2023-02-12T00:02:06;25.80;;;5.32;;
54271;SDS011;40184;53.362;5.216;2023-02-12T00:04:33;20.27;;;4.10;;
54271;SDS011;40184;53.362;5.216;2023-02-12T00:06:58;21.40;;;3.42;;
54271;SDS011;40184;53.362;5.216;2023-02-12T00:09:24;17.67;;;4.35;;
54271;SDS011;40184;53.362;5.216;2023-02-12T00:11:50;22.50;;;4.40;;
54271;SDS011;40184;53.362;5.216;2023-02-12T00:14:16;18.40;;;4.18;;
54271;SDS011;40184;53.362;5.216;2023-02-12T00:16:42;14.98;;;3.92;;
54271;SDS011;40184;53.362;5.216;2023-02-12T00:19:07;15.18;;;3.45;;
54271;SDS011;40184;53.362;5.216;2023-02-12T00:21:33;19.05;;;3.90;;
54271;SDS011;40184;53.362;5.216;2023-02-12T00:24:00;27.58;;;4.82;;
54271;SDS011;40184;53.362;5.216;2023-02-12T00:26:26;28.33;;;6.63;;
54271;SDS011;40184;53.362;5.216;2023-02-12T00:28:52;21.67;;;4.57;;
54271;SDS011;40184;53.362;5.216;2023-02-12T00:31:19;26.15;;;4.43;;
54271;SDS011;40184;53.362;5.216;2023-02-12T00:33:48;31.70;;;5.43;;
54271;SDS011;40184;53.362;5.216;2023-02-12T00:36:15;17.48;;;4.20;;
54271;SDS011;40184;53.362;5.216;2023-02-12T00:38:43;20.83;;;4.40;;
54271;SDS011;40184;53.362;5.216;2023-02-12T00:41:09;15.82;;;4.55;;
54271;SDS011;40184;53.362;5.216;2023-02-12T00:43:35;12.85;;;4.65;;
54271;SDS011;40184;53.362;5.216;2023-02-12T00:46:01;18.13;;;3.97;;
54271;SDS011;40184;53.362;5.216;2023-02-12T00:48:27;13.40;;;4.60;;
54271;SDS011;40184;53.362;5.216;2023-02-12T00:50:53;12.75;;;4.18;;
54271;SDS011;40184;53.362;5.216;2023-02-12T00:53:18;25.02;;;5.25;;
54271;SDS011;40184;53.362;5.216;2023-02-12T00:55:44;18.95;;;5.20;;
54271;SDS011;40184;53.362;5.216;2023-02-12T00:58:10;16.02;;;4.57;;
54271;SDS011;40184;53.362;5.216;2023-02-12T01:00:35;28.58;;;5.70;;
54271;SDS011;40184;53.362;5.216;2023-02-12T01:03:02;28.63;;;7.40;;
54271;SDS011;40184;53.362;5.216;2023-02-12T01:05:28;30.60;;;7.60;;
54271;SDS011;40184;53.362;5.216;2023-02-12T01:07:54;18.63;;;4.90;;
54271;SDS011;40184;53.362;5.216;2023-02-12T01:10:20;30.05;;;5.80;;
54271;SDS011;40184;53.362;5.216;2023-02-12T01:12:47;15.35;;;5.00;;
54271;SDS011;40184;53.362;5.216;2023-02-12T01:15:13;21.98;;;5.30;;
54271;SDS011;40184;53.362;5.216;2023-02-12T01:17:39;24.15;;;5.40;;
54271;SDS011;40184;53.362;5.216;2023-02-12T01:20:05;28.48;;;6.82;;
54271;SDS011;40184;53.362;5.216;2023-02-12T01:22:35;23.60;;;5.85;;
54271;SDS011;40184;53.362;5.216;2023-02-12T01:25:02;32.25;;;5.95;;
54271;SDS011;40184;53.362;5.216;2023-02-12T01:27:29;31.80;;;7.50;;
54271;SDS011;40184;53.362;5.216;2023-02-12T01:29:55;27.67;;;7.43;;
54271;SDS011;40184;53.362;5.216;2023-02-12T01:32:21;26.88;;;6.15;;
54271;SDS011;40184;53.362;5.216;2023-02-12T01:34:47;35.78;;;6.93;;
54271;SDS011;40184;53.362;5.216;2023-02-12T01:37:13;23.83;;;6.88;;
54271;SDS011;40184;53.362;5.216;2023-02-12T01:39:38;32.38;;;8.15;;
54271;SDS011;40184;53.362;5.216;2023-02-12T01:42:04;30.88;;;7.55;;
54271;SDS011;40184;53.362;5.216;2023-02-12T01:44:31;30.50;;;8.38;;
54271;SDS011;40184;53.362;5.216;2023-02-12T01:47:02;28.65;;;7.80;;
54271;SDS011;40184;53.362;5.216;2023-02-12T01:49:30;30.60;;;8.32;;
54271;SDS011;40184;53.362;5.216;2023-02-12T01:52:15;31.08;;;9.38;;
54271;SDS011;40184;53.362;5.216;2023-02-12T01:54:45;30.73;;;8.35;;
54271;SDS011;40184;53.362;5.216;2023-02-12T01:57:13;27.45;;;8.90;;
54271;SDS011;40184;53.362;5.216;2023-02-12T01:59:40;32.22;;;9.30;;
54271;SDS011;40184;53.362;5.216;2023-02-12T02:02:07;34.42;;;8.93;;
54271;SDS011;40184;53.362;5.216;2023-02-12T02:04:40;32.75;;;9.68;;
54271;SDS011;40184;53.362;5.216;2023-02-12T02:07:15;34.53;;;8.48;;
54271;SDS011;40184;53.362;5.216;2023-02-12T02:09:41;41.70;;;10.32;;
54271;SDS011;40184;53.362;5.216;2023-02-12T02:12:07;37.45;;;9.43;;
54271;SDS011;40184;53.362;5.216;2023-02-12T02:14:53;27.20;;;8.77;;
54271;SDS011;40184;53.362;5.216;2023-02-12T02:30:59;36.53;;;10.13;;
54271;SDS011;40184;53.362;5.216;2023-02-12T02:33:50;35.10;;;10.25;;
54271;SDS011;40184;53.362;5.216;2023-02-12T02:36:24;48.30;;;12.32;;
54271;SDS011;40184;53.362;5.216;2023-02-12T02:44:54;35.63;;;10.15;;
54271;SDS011;40184;53.362;5.216;2023-02-12T02:47:25;29.80;;;8.60;;
54271;SDS011;40184;53.362;5.216;2023-02-12T02:50:22;32.38;;;10.68;;
54271;SDS011;40184;53.362;5.216;2023-02-12T02:53:05;24.38;;;8.80;;
54271;SDS011;40184;53.362;5.216;2023-02-12T02:55:45;37.75;;;9.77;;
54271;SDS011;40184;53.362;5.216;2023-02-12T03:00:54;41.22;;;9.65;;
54271;SDS011;40184;53.362;5.216;2023-02-12T03:03:27;27.85;;;9.20;;
54271;SDS011;40184;53.362;5.216;2023-02-12T03:06:01;32.63;;;9.68;;
54271;SDS011;40184;53.362;5.216;2023-02-12T03:08:30;38.63;;;11.30;;
54271;SDS011;40184;53.362;5.216;2023-02-12T03:11:18;42.95;;;9.43;;
54271;SDS011;40184;53.362;5.216;2023-02-12T03:21:51;43.45;;;10.23;;
54271;SDS011;40184;53.362;5.216;2023-02-12T03:24:30;50.78;;;10.95;;
54271;SDS011;40184;53.362;5.216;2023-02-12T03:27:04;40.08;;;12.27;;
54271;SDS011;40184;53.362;5.216;2023-02-12T03:29:37;36.03;;;10.13;;
54271;SDS011;40184;53.362;5.216;2023-02-12T03:32:13;35.40;;;12.32;;
54271;SDS011;40184;53.362;5.216;2023-02-12T03:39:51;33.78;;;12.77;;
54271;SDS011;40184;53.362;5.216;2023-02-12T03:50:47;33.50;;;12.10;;
54271;SDS011;40184;53.362;5.216;2023-02-12T03:53:18;37.63;;;11.95;;
54271;SDS011;40184;53.362;5.216;2023-02-12T03:55:44;23.95;;;10.98;;
54271;SDS011;40184;53.362;5.216;2023-02-12T03:58:14;30.48;;;11.02;;
54271;SDS011;40184;53.362;5.216;2023-02-12T04:00:45;41.75;;;12.40;;
54271;SDS011;40184;53.362;5.216;2023-02-12T04:03:11;35.75;;;11.40;;
54271;SDS011;40184;53.362;5.216;2023-02-12T04:05:37;34.03;;;11.75;;
54271;SDS011;40184;53.362;5.216;2023-02-12T04:08:03;39.72;;;13.43;;
54271;SDS011;40184;53.362;5.216;2023-02-12T04:10:35;33.13;;;11.82;;
54271;SDS011;40184;53.362;5.216;2023-02-12T04:13:32;35.00;;;12.27;;
54271;SDS011;40184;53.362;5.216;2023-02-12T04:16:11;29.42;;;12.60;;
54271;SDS011;40184;53.362;5.216;2023-02-12T04:18:48;34.08;;;12.75;;
54271;SDS011;40184;53.362;5.216;2023-02-12T04:27:16;35.05;;;12.30;;
54271;SDS011;40184;53.362;5.216;2023-02-12T04:38:01;38.97;;;12.02;;
54271;SDS011;40184;53.362;5.216;2023-02-12T04:40:39;34.75;;;11.98;;
54271;SDS011;40184;53.362;5.216;2023-02-12T04:43:06;38.80;;;12.77;;
54271;SDS011;40184;53.362;5.216;2023-02-12T04:45:32;33.75;;;11.93;;
54271;SDS011;40184;53.362;5.216;2023-02-12T04:47:59;39.15;;;12.43;;
54271;SDS011;40184;53.362;5.216;2023-02-12T04:50:26;40.47;;;13.13;;
54271;SDS011;40184;53.362;5.216;2023-02-12T04:53:00;34.50;;;12.60;;
54271;SDS011;40184;53.362;5.216;2023-02-12T04:55:26;39.95;;;13.38;;
54271;SDS011;40184;53.362;5.216;2023-02-12T04:57:52;31.45;;;11.98;;
54271;SDS011;40184;53.362;5.216;2023-02-12T05:00:17;27.65;;;12.45;;
54271;SDS011;40184;53.362;5.216;2023-02-12T05:02:43;37.97;;;12.07;;
54271;SDS011;40184;53.362;5.216;2023-02-12T05:05:09;30.17;;;13.15;;
54271;SDS011;40184;53.362;5.216;2023-02-12T05:07:35;47.97;;;13.88;;
54271;SDS011;40184;53.362;5.216;2023-02-12T05:10:00;46.08;;;13.02;;
54271;SDS011;40184;53.362;5.216;2023-02-12T05:12:27;36.97;;;11.57;;
54271;SDS011;40184;53.362;5.216;2023-02-12T05:14:52;46.65;;;13.73;;
54271;SDS011;40184;53.362;5.216;2023-02-12T05:17:20;44.05;;;11.90;;
54271;SDS011;40184;53.362;5.216;2023-02-12T05:19:47;57.08;;;13.80;;
54271;SDS011;40184;53.362;5.216;2023-02-12T05:22:12;36.38;;;12.38;;
54271;SDS011;40184;53.362;5.216;2023-02-12T05:24:38;43.30;;;12.77;;
54271;SDS011;40184;53.362;5.216;2023-02-12T05:27:04;36.35;;;12.98;;
54271;SDS011;40184;53.362;5.216;2023-02-12T05:29:30;49.80;;;14.57;;
54271;SDS011;40184;53.362;5.216;2023-02-12T05:31:55;37.90;;;14.18;;
54271;SDS011;40184;53.362;5.216;2023-02-12T05:34:21;56.20;;;14.98;;
54271;SDS011;40184;53.362;5.216;2023-02-12T05:36:47;49.80;;;15.63;;
54271;SDS011;40184;53.362;5.216;2023-02-12T05:39:12;43.83;;;16.23;;
54271;SDS011;40184;53.362;5.216;2023-02-12T05:41:38;41.13;;;14.35;;
54271;SDS011;40184;53.362;5.216;2023-02-12T05:44:04;37.80;;;15.68;;
54271;SDS011;40184;53.362;5.216;2023-02-12T05:46:30;39.45;;;15.40;;
54271;SDS011;40184;53.362;5.216;2023-02-12T05:48:56;41.35;;;15.68;;
54271;SDS011;40184;53.362;5.216;2023-02-12T05:51:23;47.75;;;16.30;;
54271;SDS011;40184;53.362;5.216;2023-02-12T05:53:50;45.65;;;16.42;;
54271;SDS011;40184;53.362;5.216;2023-02-12T05:56:23;37.63;;;14.65;;
54271;SDS011;40184;53.362;5.216;2023-02-12T05:58:58;40.83;;;16.10;;
54271;SDS011;40184;53.362;5.216;2023-02-12T06:01:30;36.20;;;13.93;;
54271;SDS011;40184;53.362;5.216;2023-02-12T06:03:58;43.90;;;14.65;;
54271;SDS011;40184;53.362;5.216;2023-02-12T06:06:25;37.60;;;14.48;;
54271;SDS011;40184;53.362;5.216;2023-02-12T06:08:51;47.92;;;14.05;;
54271;SDS011;40184;53.362;5.216;2023-02-12T06:11:17;40.60;;;14.82;;
54271;SDS011;40184;53.362;5.216;2023-02-12T06:13:44;34.28;;;13.77;;
54271;SDS011;40184;53.362;5.216;2023-02-12T06:16:15;30.10;;;15.07;;
54271;SDS011;40184;53.362;5.216;2023-02-12T06:18:41;35.65;;;15.80;;
54271;SDS011;40184;53.362;5.216;2023-02-12T06:21:07;39.13;;;14.90;;
54271;SDS011;40184;53.362;5.216;2023-02-12T06:23:32;39.83;;;16.60;;
54271;SDS011;40184;53.362;5.216;2023-02-12T06:25:58;35.50;;;16.27;;
54271;SDS011;40184;53.362;5.216;2023-02-12T06:28:24;56.55;;;20.63;;
54271;SDS011;40184;53.362;5.216;2023-02-12T06:30:49;53.05;;;19.42;;
54271;SDS011;40184;53.362;5.216;2023-02-12T06:33:15;50.30;;;20.33;;
54271;SDS011;40184;53.362;5.216;2023-02-12T06:35:41;49.83;;;20.00;;
54271;SDS011;40184;53.362;5.216;2023-02-12T06:38:06;47.53;;;19.90;;
54271;SDS011;40184;53.362;5.216;2023-02-12T06:40:33;49.47;;;20.15;;
54271;SDS011;40184;53.362;5.216;2023-02-12T06:42:59;59.85;;;21.02;;
54271;SDS011;40184;53.362;5.216;2023-02-12T06:45:24;62.47;;;20.80;;
54271;SDS011;40184;53.362;5.216;2023-02-12T06:47:50;60.00;;;21.85;;
54271;SDS011;40184;53.362;5.216;2023-02-12T06:50:16;76.72;;;21.88;;
54271;SDS011;40184;53.362;5.216;2023-02-12T06:52:42;61.95;;;21.13;;
54271;SDS011;40184;53.362;5.216;2023-02-12T06:55:07;60.17;;;20.70;;
54271;SDS011;40184;53.362;5.216;2023-02-12T06:57:33;63.97;;;22.00;;
54271;SDS011;40184;53.362;5.216;2023-02-12T06:59:58;83.22;;;27.10;;
54271;SDS011;40184;53.362;5.216;2023-02-12T07:02:24;66.63;;;22.65;;
54271;SDS011;40184;53.362;5.216;2023-02-12T07:04:50;63.20;;;20.90;;
54271;SDS011;40184;53.362;5.216;2023-02-12T07:07:15;64.90;;;22.42;;
54271;SDS011;40184;53.362;5.216;2023-02-12T07:09:41;55.88;;;23.88;;
54271;SDS011;40184;53.362;5.216;2023-02-12T07:12:07;54.15;;;22.40;;
54271;SDS011;40184;53.362;5.216;2023-02-12T07:14:33;39.78;;;22.52;;
54271;SDS011;40184;53.362;5.216;2023-02-12T07:16:58;44.42;;;21.85;;
54271;SDS011;40184;53.362;5.216;2023-02-12T07:19:27;42.60;;;21.48;;
54271;SDS011;40184;53.362;5.216;2023-02-12T07:21:54;48.10;;;22.80;;
54271;SDS011;40184;53.362;5.216;2023-02-12T07:24:19;39.85;;;22.33;;
54271;SDS011;40184;53.362;5.216;2023-02-12T07:26:45;47.40;;;23.85;;
54271;SDS011;40184;53.362;5.216;2023-02-12T07:29:11;46.45;;;22.33;;
54271;SDS011;40184;53.362;5.216;2023-02-12T07:31:37;38.35;;;21.98;;
54271;SDS011;40184;53.362;5.216;2023-02-12T07:34:03;40.67;;;20.92;;
54271;SDS011;40184;53.362;5.216;2023-02-12T07:36:29;40.72;;;20.73;;
54271;SDS011;40184;53.362;5.216;2023-02-12T07:38:57;35.35;;;19.60;;
54271;SDS011;40184;53.362;5.216;2023-02-12T07:41:31;39.92;;;21.13;;
54271;SDS011;40184;53.362;5.216;2023-02-12T07:43:58;36.15;;;19.00;;
54271;SDS011;40184;53.362;5.216;2023-02-12T07:46:41;36.97;;;18.92;;
54271;SDS011;40184;53.362;5.216;2023-02-12T07:49:12;32.53;;;20.60;;
54271;SDS011;40184;53.362;5.216;2023-02-12T07:51:40;32.03;;;18.93;;
54271;SDS011;40184;53.362;5.216;2023-02-12T07:54:06;39.88;;;22.48;;
54271;SDS011;40184;53.362;5.216;2023-02-12T07:56:33;35.10;;;19.40;;
54271;SDS011;40184;53.362;5.216;2023-02-12T07:59:03;36.25;;;21.05;;
54271;SDS011;40184;53.362;5.216;2023-02-12T08:01:34;45.08;;;22.85;;
54271;SDS011;40184;53.362;5.216;2023-02-12T08:04:02;38.65;;;21.35;;
54271;SDS011;40184;53.362;5.216;2023-02-12T08:06:31;38.72;;;21.80;;
54271;SDS011;40184;53.362;5.216;2023-02-12T08:08:59;41.50;;;22.25;;
54271;SDS011;40184;53.362;5.216;2023-02-12T08:11:27;38.75;;;19.65;;
54271;SDS011;40184;53.362;5.216;2023-02-12T08:13:55;34.60;;;18.77;;
54271;SDS011;40184;53.362;5.216;2023-02-12T08:16:21;40.30;;;21.85;;
54271;SDS011;40184;53.362;5.216;2023-02-12T08:18:49;51.13;;;19.50;;
54271;SDS011;40184;53.362;5.216;2023-02-12T08:21:17;64.10;;;21.30;;
54271;SDS011;40184;53.362;5.216;2023-02-12T08:23:45;46.55;;;18.42;;
54271;SDS011;40184;53.362;5.216;2023-02-12T08:28:41;42.58;;;16.90;;
54271;SDS011;40184;53.362;5.216;2023-02-12T08:31:16;32.08;;;16.38;;
54271;SDS011;40184;53.362;5.216;2023-02-12T08:33:47;36.65;;;17.08;;
54271;SDS011;40184;53.362;5.216;2023-02-12T08:36:15;37.85;;;17.58;;
54271;SDS011;40184;53.362;5.216;2023-02-12T08:38:43;42.95;;;16.15;;
54271;SDS011;40184;53.362;5.216;2023-02-12T08:41:17;29.45;;;16.58;;
54271;SDS011;40184;53.362;5.216;2023-02-12T08:43:45;42.28;;;19.02;;
54271;SDS011;40184;53.362;5.216;2023-02-12T08:46:12;39.35;;;20.40;;
54271;SDS011;40184;53.362;5.216;2023-02-12T08:48:40;39.20;;;21.13;;
54271;SDS011;40184;53.362;5.216;2023-02-12T08:51:10;33.75;;;19.35;;
54271;SDS011;40184;53.362;5.216;2023-02-12T08:53:44;33.42;;;17.85;;
54271;SDS011;40184;53.362;5.216;2023-02-12T08:56:12;40.25;;;19.25;;
54271;SDS011;40184;53.362;5.216;2023-02-12T08:58:39;41.08;;;18.77;;
54271;SDS011;40184;53.362;5.216;2023-02-12T09:01:09;42.13;;;18.60;;
54271;SDS011;40184;53.362;5.216;2023-02-12T09:03:36;34.15;;;19.48;;
54271;SDS011;40184;53.362;5.216;2023-02-12T09:06:02;44.90;;;21.17;;
54271;SDS011;40184;53.362;5.216;2023-02-12T09:08:29;37.72;;;19.08;;
54271;SDS011;40184;53.362;5.216;2023-02-12T09:10:55;36.33;;;20.30;;
54271;SDS011;40184;53.362;5.216;2023-02-12T09:13:20;32.67;;;19.85;;
54271;SDS011;40184;53.362;5.216;2023-02-12T09:15:46;41.50;;;21.42;;
54271;SDS011;40184;53.362;5.216;2023-02-12T09:18:12;37.08;;;20.92;;
54271;SDS011;40184;53.362;5.216;2023-02-12T09:20:39;35.97;;;21.35;;
54271;SDS011;40184;53.362;5.216;2023-02-12T09:23:07;41.53;;;20.48;;
54271;SDS011;40184;53.362;5.216;2023-02-12T09:25:33;38.40;;;20.02;;
54271;SDS011;40184;53.362;5.216;2023-02-12T09:28:03;30.77;;;18.95;;
54271;SDS011;40184;53.362;5.216;2023-02-12T09:30:28;31.58;;;19.63;;
54271;SDS011;40184;53.362;5.216;2023-02-12T09:32:54;34.50;;;19.73;;
54271;SDS011;40184;53.362;5.216;2023-02-12T09:35:21;36.88;;;20.90;;
54271;SDS011;40184;53.362;5.216;2023-02-12T09:37:47;33.65;;;21.63;;
54271;SDS011;40184;53.362;5.216;2023-02-12T09:45:52;39.10;;;22.45;;
54271;SDS011;40184;53.362;5.216;2023-02-12T09:48:38;32.55;;;20.25;;
54271;SDS011;40184;53.362;5.216;2023-02-12T09:51:12;35.78;;;19.50;;
54271;SDS011;40184;53.362;5.216;2023-02-12T09:53:41;38.28;;;19.52;;
54271;SDS011;40184;53.362;5.216;2023-02-12T09:56:13;32.90;;;16.98;;
54271;SDS011;40184;53.362;5.216;2023-02-12T09:58:58;33.53;;;17.30;;
54271;SDS011;40184;53.362;5.216;2023-02-12T10:01:27;31.95;;;17.17;;
54271;SDS011;40184;53.362;5.216;2023-02-12T10:03:53;29.35;;;15.25;;
54271;SDS011;40184;53.362;5.216;2023-02-12T10:06:20;28.52;;;12.15;;
54271;SDS011;40184;53.362;5.216;2023-02-12T10:11:55;33.85;;;12.70;;
54271;SDS011;40184;53.362;5.216;2023-02-12T10:14:33;27.45;;;10.57;;
54271;SDS011;40184;53.362;5.216;2023-02-12T10:27:53;17.83;;;9.77;;
54271;SDS011;40184;53.362;5.216;2023-02-12T10:33:06;15.35;;;7.63;;
54271;SDS011;40184;53.362;5.216;2023-02-12T10:35:47;30.48;;;8.55;;
54271;SDS011;40184;53.362;5.216;2023-02-12T10:38:19;34.97;;;8.10;;
54271;SDS011;40184;53.362;5.216;2023-02-12T10:40:49;20.17;;;7.05;;
54271;SDS011;40184;53.362;5.216;2023-02-12T10:43:14;29.05;;;8.02;;
54271;SDS011;40184;53.362;5.216;2023-02-12T10:45:41;25.70;;;7.20;;
54271;SDS011;40184;53.362;5.216;2023-02-12T10:48:29;22.13;;;7.30;;
54271;SDS011;40184;53.362;5.216;2023-02-12T10:51:02;27.05;;;7.47;;
54271;SDS011;40184;53.362;5.216;2023-02-12T10:53:34;20.70;;;7.43;;
54271;SDS011;40184;53.362;5.216;2023-02-12T10:56:17;27.42;;;7.70;;
54271;SDS011;40184;53.362;5.216;2023-02-12T10:58:51;26.23;;;8.13;;
54271;SDS011;40184;53.362;5.216;2023-02-12T11:01:20;24.23;;;7.93;;
54271;SDS011;40184;53.362;5.216;2023-02-12T11:04:46;26.30;;;8.33;;
54271;SDS011;40184;53.362;5.216;2023-02-12T11:09:44;19.33;;;6.50;;
54271;SDS011;40184;53.362;5.216;2023-02-12T11:15:15;24.20;;;6.50;;
54271;SDS011;40184;53.362;5.216;2023-02-12T11:18:05;18.95;;;6.68;;
54271;SDS011;40184;53.362;5.216;2023-02-12T11:20:39;17.52;;;5.60;;
54271;SDS011;40184;53.362;5.216;2023-02-12T11:23:23;16.83;;;5.63;;
54271;SDS011;40184;53.362;5.216;2023-02-12T11:25:54;13.85;;;5.05;;
54271;SDS011;40184;53.362;5.216;2023-02-12T11:28:22;17.48;;;6.55;;
54271;SDS011;40184;53.362;5.216;2023-02-12T11:30:53;10.70;;;5.35;;
54271;SDS011;40184;53.362;5.216;2023-02-12T11:33:23;21.55;;;6.05;;
54271;SDS011;40184;53.362;5.216;2023-02-12T11:36:02;28.40;;;7.10;;
54271;SDS011;40184;53.362;5.216;2023-02-12T11:38:49;36.72;;;10.23;;
54271;SDS011;40184;53.362;5.216;2023-02-12T11:43:58;30.77;;;9.88;;
54271;SDS011;40184;53.362;5.216;2023-02-12T11:46:25;35.80;;;14.75;;
54271;SDS011;40184;53.362;5.216;2023-02-12T11:48:52;24.33;;;9.63;;
54271;SDS011;40184;53.362;5.216;2023-02-12T11:51:22;24.17;;;8.45;;
54271;SDS011;40184;53.362;5.216;2023-02-12T11:53:51;18.63;;;7.55;;
54271;SDS011;40184;53.362;5.216;2023-02-12T11:56:19;17.10;;;5.85;;
54271;SDS011;40184;53.362;5.216;2023-02-12T11:58:46;14.82;;;6.72;;
54271;SDS011;40184;53.362;5.216;2023-02-12T12:09:10;10.95;;;6.10;;
54271;SDS011;40184;53.362;5.216;2023-02-12T12:14:45;14.10;;;5.72;;
54271;SDS011;40184;53.362;5.216;2023-02-12T12:17:45;10.68;;;4.82;;
54271;SDS011;40184;53.362;5.216;2023-02-12T12:20:44;12.48;;;5.75;;
54271;SDS011;40184;53.362;5.216;2023-02-12T12:27:02;9.57;;;4.20;;
54271;SDS011;40184;53.362;5.216;2023-02-12T12:29:57;10.65;;;5.47;;
54271;SDS011;40184;53.362;5.216;2023-02-12T12:32:30;7.97;;;4.72;;
54271;SDS011;40184;53.362;5.216;2023-02-12T12:35:00;9.95;;;5.55;;
54271;SDS011;40184;53.362;5.216;2023-02-12T12:40:41;7.10;;;4.38;;
54271;SDS011;40184;53.362;5.216;2023-02-12T12:43:25;14.23;;;5.10;;
54271;SDS011;40184;53.362;5.216;2023-02-12T12:46:24;12.77;;;4.85;;
54271;SDS011;40184;53.362;5.216;2023-02-12T12:54:07;11.02;;;5.40;;
54271;SDS011;40184;53.362;5.216;2023-02-12T12:57:00;11.38;;;5.90;;
54271;SDS011;40184;53.362;5.216;2023-02-12T13:05:45;9.02;;;5.88;;
54271;SDS011;40184;53.362;5.216;2023-02-12T13:11:16;23.40;;;8.23;;
54271;SDS011;40184;53.362;5.216;2023-02-12T13:14:50;7.25;;;5.68;;
54271;SDS011;40184;53.362;5.216;2023-02-12T13:27:22;11.45;;;5.85;;
54271;SDS011;40184;53.362;5.216;2023-02-12T13:32:45;8.93;;;6.45;;
54271;SDS011;40184;53.362;5.216;2023-02-12T13:35:23;16.58;;;7.43;;
54271;SDS011;40184;53.362;5.216;2023-02-12T13:37:53;15.52;;;7.45;;
54271;SDS011;40184;53.362;5.216;2023-02-12T13:40:21;14.15;;;8.52;;
54271;SDS011;40184;53.362;5.216;2023-02-12T13:51:20;11.02;;;6.70;;
54271;SDS011;40184;53.362;5.216;2023-02-12T13:57:00;7.95;;;7.03;;
54271;SDS011;40184;53.362;5.216;2023-02-12T14:04:57;13.38;;;7.38;;
54271;SDS011;40184;53.362;5.216;2023-02-12T14:07:24;7.30;;;6.55;;
54271;SDS011;40184;53.362;5.216;2023-02-12T14:10:28;8.40;;;7.35;;
54271;SDS011;40184;53.362;5.216;2023-02-12T14:15:38;10.68;;;8.45;;
54271;SDS011;40184;53.362;5.216;2023-02-12T14:23:43;19.90;;;9.43;;
54271;SDS011;40184;53.362;5.216;2023-02-12T14:26:11;10.57;;;8.93;;
54271;SDS011;40184;53.362;5.216;2023-02-12T14:31:20;15.02;;;8.32;;
54271;SDS011;40184;53.362;5.216;2023-02-12T14:46:48;9.95;;;8.63;;
54271;SDS011;40184;53.362;5.216;2023-02-12T14:49:23;11.93;;;8.00;;
54271;SDS011;40184;53.362;5.216;2023-02-12T14:54:41;11.70;;;9.55;;
54271;SDS011;40184;53.362;5.216;2023-02-12T15:05:40;11.93;;;10.07;;
54271;SDS011;40184;53.362;5.216;2023-02-12T15:08:17;11.07;;;9.07;;
54271;SDS011;40184;53.362;5.216;2023-02-12T15:10:53;12.80;;;8.40;;
54271;SDS011;40184;53.362;5.216;2023-02-12T15:13:26;15.02;;;9.77;;
54271;SDS011;40184;53.362;5.216;2023-02-12T15:21:24;13.60;;;10.63;;
54271;SDS011;40184;53.362;5.216;2023-02-12T15:24:03;10.70;;;9.60;;
54271;SDS011;40184;53.362;5.216;2023-02-12T15:26:41;10.43;;;9.45;;
54271;SDS011;40184;53.362;5.216;2023-02-12T15:29:30;17.45;;;9.70;;
54271;SDS011;40184;53.362;5.216;2023-02-12T15:32:06;13.07;;;9.13;;
54271;SDS011;40184;53.362;5.216;2023-02-12T15:34:35;14.30;;;9.85;;
54271;SDS011;40184;53.362;5.216;2023-02-12T15:37:04;19.33;;;10.00;;
54271;SDS011;40184;53.362;5.216;2023-02-12T15:39:42;17.08;;;9.00;;
54271;SDS011;40184;53.362;5.216;2023-02-12T15:47:56;13.13;;;8.60;;
54271;SDS011;40184;53.362;5.216;2023-02-12T15:50:29;10.65;;;8.05;;
54271;SDS011;40184;53.362;5.216;2023-02-12T15:52:57;9.13;;;7.32;;
54271;SDS011;40184;53.362;5.216;2023-02-12T15:55:24;15.57;;;9.13;;
54271;SDS011;40184;53.362;5.216;2023-02-12T15:57:56;11.45;;;9.00;;
54271;SDS011;40184;53.362;5.216;2023-02-12T16:00:40;13.10;;;8.70;;
54271;SDS011;40184;53.362;5.216;2023-02-12T16:03:24;11.35;;;9.38;;
54271;SDS011;40184;53.362;5.216;2023-02-12T16:05:59;86.00;;;49.33;;
54271;SDS011;40184;53.362;5.216;2023-02-12T16:08:38;15.00;;;12.13;;
54271;SDS011;40184;53.362;5.216;2023-02-12T16:11:10;52.85;;;30.38;;
54271;SDS011;40184;53.362;5.216;2023-02-12T16:13:42;17.23;;;12.20;;
54271;SDS011;40184;53.362;5.216;2023-02-12T16:18:37;15.40;;;9.93;;
54271;SDS011;40184;53.362;5.216;2023-02-12T16:21:25;12.35;;;10.18;;
54271;SDS011;40184;53.362;5.216;2023-02-12T16:23:50;15.32;;;10.25;;
54271;SDS011;40184;53.362;5.216;2023-02-12T16:26:20;10.68;;;9.68;;
54271;SDS011;40184;53.362;5.216;2023-02-12T16:28:48;11.25;;;10.05;;
54271;SDS011;40184;53.362;5.216;2023-02-12T16:31:18;15.65;;;12.00;;
54271;SDS011;40184;53.362;5.216;2023-02-12T16:33:47;13.95;;;12.38;;
54271;SDS011;40184;53.362;5.216;2023-02-12T16:38:53;12.30;;;10.82;;
54271;SDS011;40184;53.362;5.216;2023-02-12T16:46:48;10.13;;;9.13;;
54271;SDS011;40184;53.362;5.216;2023-02-12T16:49:18;15.52;;;12.45;;
54271;SDS011;40184;53.362;5.216;2023-02-12T16:51:46;13.07;;;11.70;;
54271;SDS011;40184;53.362;5.216;2023-02-12T16:54:29;12.25;;;10.30;;
54271;SDS011;40184;53.362;5.216;2023-02-12T16:56:57;12.70;;;11.35;;
54271;SDS011;40184;53.362;5.216;2023-02-12T16:59:23;10.07;;;9.07;;
54271;SDS011;40184;53.362;5.216;2023-02-12T17:01:57;10.23;;;9.23;;
54271;SDS011;40184;53.362;5.216;2023-02-12T17:04:28;10.70;;;8.93;;
54271;SDS011;40184;53.362;5.216;2023-02-12T17:06:54;10.15;;;9.13;;
54271;SDS011;40184;53.362;5.216;2023-02-12T17:09:20;11.50;;;10.23;;
54271;SDS011;40184;53.362;5.216;2023-02-12T17:11:46;10.93;;;8.57;;
54271;SDS011;40184;53.362;5.216;2023-02-12T17:14:18;10.18;;;8.70;;
54271;SDS011;40184;53.362;5.216;2023-02-12T17:16:44;10.90;;;8.65;;
54271;SDS011;40184;53.362;5.216;2023-02-12T17:19:10;13.88;;;9.10;;
54271;SDS011;40184;53.362;5.216;2023-02-12T17:21:37;10.02;;;8.38;;
54271;SDS011;40184;53.362;5.216;2023-02-12T17:26:48;9.82;;;8.10;;
54271;SDS011;40184;53.362;5.216;2023-02-12T17:29:15;9.30;;;8.30;;
54271;SDS011;40184;53.362;5.216;2023-02-12T17:31:41;10.13;;;9.13;;
54271;SDS011;40184;53.362;5.216;2023-02-12T17:34:07;10.45;;;8.18;;
54271;SDS011;40184;53.362;5.216;2023-02-12T17:36:33;8.52;;;7.13;;
54271;SDS011;40184;53.362;5.216;2023-02-12T17:38:59;7.47;;;6.78;;
54271;SDS011;40184;53.362;5.216;2023-02-12T17:41:26;8.55;;;7.75;;
54271;SDS011;40184;53.362;5.216;2023-02-12T17:43:52;9.68;;;7.57;;
54271;SDS011;40184;53.362;5.216;2023-02-12T17:46:20;13.75;;;9.50;;
54271;SDS011;40184;53.362;5.216;2023-02-12T17:48:48;9.60;;;8.40;;
54271;SDS011;40184;53.362;5.216;2023-02-12T17:51:14;8.60;;;7.45;;
54271;SDS011;40184;53.362;5.216;2023-02-12T17:53:39;8.55;;;7.72;;
54271;SDS011;40184;53.362;5.216;2023-02-12T17:56:12;11.68;;;10.40;;
54271;SDS011;40184;53.362;5.216;2023-02-12T17:58:40;8.95;;;7.90;;
54271;SDS011;40184;53.362;5.216;2023-02-12T18:01:08;12.85;;;10.57;;
54271;SDS011;40184;53.362;5.216;2023-02-12T18:03:36;22.75;;;15.07;;
54271;SDS011;40184;53.362;5.216;2023-02-12T18:06:02;18.55;;;10.80;;
54271;SDS011;40184;53.362;5.216;2023-02-12T18:08:28;13.77;;;6.95;;
54271;SDS011;40184;53.362;5.216;2023-02-12T18:10:55;7.60;;;6.43;;
54271;SDS011;40184;53.362;5.216;2023-02-12T18:13:20;12.38;;;8.10;;
54271;SDS011;40184;53.362;5.216;2023-02-12T18:15:46;11.68;;;7.82;;
54271;SDS011;40184;53.362;5.216;2023-02-12T18:18:12;8.60;;;7.10;;
54271;SDS011;40184;53.362;5.216;2023-02-12T18:20:39;13.38;;;7.15;;